createdAt,value
2023-01-31T00:02:01.233Z,101241.81
2023-01-31T00:04:30.886Z,101244.38
2023-01-31T00:06:58.991Z,101233.88
2023-01-31T00:09:27.119Z,101235.44
2023-01-31T00:11:55.517Z,101230.78
2023-01-31T00:14:25.094Z,101228.69
2023-01-31T00:16:53.848Z,101225.69
2023-01-31T00:19:22.134Z,101213.69
2023-01-31T00:21:51.901Z,101221.47
2023-01-31T00:24:20.266Z,101212.41
2023-01-31T00:26:48.740Z,101223.44
2023-01-31T00:29:16.921Z,101218.66
2023-01-31T00:31:46.501Z,101212.16
2023-01-31T00:34:14.721Z,101213.84
2023-01-31T00:36:45.333Z,101208.47
2023-01-31T00:39:14.868Z,101217.03
2023-01-31T00:41:46.583Z,101213.59
2023-01-31T00:44:14.874Z,101204.69
2023-01-31T00:46:43.244Z,101194.66
2023-01-31T00:49:11.528Z,101198.06
2023-01-31T00:51:39.680Z,101202.06
2023-01-31T00:54:07.762Z,101199.03
2023-01-31T00:56:38.369Z,101199.75
2023-01-31T00:59:08.790Z,101193.25
2023-01-31T01:01:38.002Z,101189.84
2023-01-31T01:04:07.197Z,101184.78
2023-01-31T01:06:36.922Z,101181.97
2023-01-31T01:09:05.100Z,101178.31
2023-01-31T01:11:34.550Z,101180.84
2023-01-31T01:14:04.302Z,101187.06
2023-01-31T01:16:34.320Z,101183.13
2023-01-31T01:19:07.586Z,101179.47
2023-01-31T01:21:39.284Z,101181.00
2023-01-31T01:24:08.211Z,101182.88
2023-01-31T01:26:36.793Z,101177.16
2023-01-31T01:29:07.292Z,101184.84
2023-01-31T01:31:36.040Z,101177.16
2023-01-31T01:34:07.201Z,101182.25
2023-01-31T01:36:35.969Z,101173.50
2023-01-31T01:39:04.442Z,101177.28
2023-01-31T01:41:33.793Z,101184.38
2023-01-31T01:44:02.669Z,101168.25
2023-01-31T01:46:34.363Z,101174.59
2023-01-31T01:49:04.868Z,101170.31
2023-01-31T01:51:35.438Z,101179.97
2023-01-31T01:54:06.939Z,101177.03
2023-01-31T01:56:39.982Z,101176.59
2023-01-31T01:59:10.192Z,101181.69
2023-01-31T02:01:40.242Z,101176.84
2023-01-31T02:04:14.150Z,101167.19
2023-01-31T02:06:44.567Z,101173.44
2023-01-31T02:09:17.823Z,101173.69
2023-01-31T02:11:46.051Z,101177.84
2023-01-31T02:14:14.214Z,101186.44
2023-01-31T02:16:43.818Z,101180.78
2023-01-31T02:19:17.794Z,101187.00
2023-01-31T02:22:01.147Z,101191.81
2023-01-31T02:24:44.465Z,101195.81
2023-01-31T02:27:25.467Z,101194.66
2023-01-31T02:30:14.790Z,101194.66
2023-01-31T02:32:51.539Z,101198.06
2023-01-31T02:35:25.873Z,101186.25
2023-01-31T02:37:59.266Z,101198.44
2023-01-31T02:40:31.251Z,101205.50
2023-01-31T02:43:04.117Z,101203.09
2023-01-31T02:45:35.620Z,101200.59
2023-01-31T02:48:16.476Z,101202.47
2023-01-31T02:50:54.897Z,101198.06
2023-01-31T02:53:25.783Z,101205.72
2023-01-31T02:56:13.877Z,101201.31
2023-01-31T02:58:45.586Z,101201.78
2023-01-31T03:01:15.648Z,101192.47
2023-01-31T03:03:45.449Z,101191.75
2023-01-31T03:06:36.634Z,101195.03
2023-01-31T03:09:11.006Z,101187.78
2023-01-31T03:11:42.082Z,101195.63
2023-01-31T03:14:16.052Z,101194.25
2023-01-31T03:17:04.152Z,101193.97
2023-01-31T03:19:37.346Z,101189.69
2023-01-31T03:22:08.643Z,101184.31
2023-01-31T03:24:38.199Z,101198.94
2023-01-31T03:27:07.570Z,101198.19
2023-01-31T03:29:38.763Z,101197.97
2023-01-31T03:32:11.912Z,101201.34
2023-01-31T03:34:41.897Z,101204.78
2023-01-31T03:37:14.682Z,101219.22
2023-01-31T03:39:55.105Z,101224.63
2023-01-31T03:42:26.073Z,101250.16
2023-01-31T03:44:57.690Z,101268.25
2023-01-31T03:47:27.208Z,101272.81
2023-01-31T03:49:58.752Z,101262.75
2023-01-31T03:52:29.298Z,101265.44
2023-01-31T03:55:00.711Z,101254.44
2023-01-31T03:57:32.526Z,101262.50
2023-01-31T04:00:01.777Z,101255.13
2023-01-31T04:02:34.338Z,101264.94
2023-01-31T04:05:07.769Z,101268.03
2023-01-31T04:07:37.311Z,101267.16
2023-01-31T04:10:08.253Z,101266.72
2023-01-31T04:12:37.284Z,101270.59
2023-01-31T04:15:06.227Z,101263.34
2023-01-31T04:17:34.559Z,101252.03
2023-01-31T04:20:02.787Z,101232.75
2023-01-31T04:22:32.519Z,101229.88
2023-01-31T04:25:00.548Z,101225.22
2023-01-31T04:27:28.645Z,101221.88
2023-01-31T04:29:56.685Z,101217.56
2023-01-31T04:32:24.882Z,101216.53
2023-01-31T04:34:53.056Z,101220.16
2023-01-31T04:37:21.234Z,101228.28
2023-01-31T04:39:50.778Z,101228.91
2023-01-31T04:42:18.999Z,101241.38
2023-01-31T04:44:47.027Z,101241.91
2023-01-31T04:47:15.304Z,101242.41
2023-01-31T04:49:44.353Z,101231.94
2023-01-31T04:52:12.841Z,101225.38
2023-01-31T04:54:41.980Z,101233.69
2023-01-31T04:57:11.567Z,101227.38
2023-01-31T04:59:39.679Z,101230.78
2023-01-31T05:02:08.436Z,101230.47
2023-01-31T05:04:36.673Z,101232.53
2023-01-31T05:07:04.796Z,101226.91
2023-01-31T05:09:32.847Z,101223.00
2023-01-31T05:12:00.954Z,101218.97
2023-01-31T05:14:30.574Z,101226.31
2023-01-31T05:16:59.410Z,101223.22
2023-01-31T05:19:27.590Z,101224.94
2023-01-31T05:21:59.900Z,101220.66
2023-01-31T05:24:28.613Z,101218.09
2023-01-31T05:26:58.871Z,101228.97
2023-01-31T05:29:27.487Z,101230.56
2023-01-31T05:31:58.416Z,101229.56
2023-01-31T05:34:28.746Z,101226.03
2023-01-31T05:36:57.157Z,101236.16
2023-01-31T05:39:25.217Z,101227.13
2023-01-31T05:41:53.992Z,101230.53
2023-01-31T05:44:22.549Z,101225.78
2023-01-31T05:46:50.637Z,101236.84
2023-01-31T05:49:20.272Z,101235.16
2023-01-31T05:51:48.423Z,101237.59
2023-01-31T05:54:16.592Z,101237.84
2023-01-31T05:56:44.647Z,101245.91
2023-01-31T05:59:12.920Z,101226.75
2023-01-31T06:01:41.054Z,101241.78
2023-01-31T06:04:09.144Z,101246.66
2023-01-31T06:06:38.644Z,101243.84
2023-01-31T06:09:06.881Z,101241.28
2023-01-31T06:11:35.062Z,101249.31
2023-01-31T06:14:03.269Z,101251.53
2023-01-31T06:16:31.975Z,101255.31
2023-01-31T06:19:00.200Z,101257.38
2023-01-31T06:21:28.647Z,101254.94
2023-01-31T06:23:58.569Z,101246.41
2023-01-31T06:26:26.713Z,101260.56
2023-01-31T06:28:55.619Z,101265.69
2023-01-31T06:31:23.837Z,101250.69
2023-01-31T06:33:52.092Z,101250.56
2023-01-31T06:36:20.153Z,101249.22
2023-01-31T06:38:50.570Z,101252.03
2023-01-31T06:41:20.342Z,101255.81
2023-01-31T06:43:48.586Z,101255.44
2023-01-31T06:46:16.786Z,101251.41
2023-01-31T06:48:45.234Z,101243.22
2023-01-31T06:51:13.302Z,101244.06
2023-01-31T06:53:41.495Z,101236.94
2023-01-31T06:56:09.801Z,101225.63
2023-01-31T06:58:39.280Z,101229.91
2023-01-31T07:01:07.995Z,101241.47
2023-01-31T07:03:36.433Z,101240.16
2023-01-31T07:06:04.690Z,101237.47
2023-01-31T07:08:35.312Z,101245.16
2023-01-31T07:11:04.856Z,101247.84
2023-01-31T07:13:33.046Z,101246.50
2023-01-31T07:16:02.701Z,101248.84
2023-01-31T07:18:31.314Z,101246.88
2023-01-31T07:20:59.635Z,101261.78
2023-01-31T07:23:27.881Z,101264.22
2023-01-31T07:25:56.027Z,101269.47
2023-01-31T07:28:24.213Z,101276.31
2023-01-31T07:30:52.399Z,101267.63
2023-01-31T07:33:22.159Z,101271.66
2023-01-31T07:35:51.131Z,101277.78
2023-01-31T07:38:19.825Z,101282.78
2023-01-31T07:40:47.921Z,101284.25
2023-01-31T07:43:15.926Z,101269.38
2023-01-31T07:45:44.214Z,101266.09
2023-01-31T07:48:12.301Z,101282.06
2023-01-31T07:50:41.854Z,101292.53
2023-01-31T07:53:10.063Z,101305.59
2023-01-31T07:55:38.162Z,101303.63
2023-01-31T07:58:06.385Z,101297.16
2023-01-31T08:00:51.964Z,101297.03
2023-01-31T08:03:33.989Z,101298.84
2023-01-31T08:06:04.965Z,101297.38
2023-01-31T08:08:33.078Z,101305.91
2023-01-31T08:11:01.135Z,101306.84
2023-01-31T08:13:29.890Z,101301.97
2023-01-31T08:15:57.961Z,101301.56
2023-01-31T08:18:26.234Z,101307.41
2023-01-31T08:20:54.741Z,101318.97
2023-01-31T08:23:24.442Z,101320.41
2023-01-31T08:25:52.505Z,101318.81
2023-01-31T08:28:20.703Z,101326.38
2023-01-31T08:31:02.767Z,101325.53
2023-01-31T08:33:37.689Z,101330.97
2023-01-31T08:36:13.287Z,101327.44
2023-01-31T08:38:43.457Z,101337.31
2023-01-31T08:41:11.977Z,101321.06
2023-01-31T08:43:54.272Z,101326.19
2023-01-31T08:46:25.459Z,101329.59
2023-01-31T08:48:53.596Z,101335.19
2023-01-31T08:51:21.756Z,101331.56
2023-01-31T08:53:51.446Z,101340.56
2023-01-31T08:56:21.477Z,101336.06
2023-01-31T08:58:49.818Z,101337.16
2023-01-31T09:01:19.186Z,101338.63
2023-01-31T09:03:48.154Z,101341.19
2023-01-31T09:06:17.116Z,101349.00
2023-01-31T09:08:45.491Z,101349.66
2023-01-31T09:11:17.594Z,101359.38
2023-01-31T09:13:46.153Z,101373.22
2023-01-31T09:16:15.051Z,101376.75
2023-01-31T09:18:43.397Z,101376.50
2023-01-31T09:21:12.943Z,101375.53
2023-01-31T09:23:42.677Z,101380.56
2023-01-31T09:26:12.035Z,101379.25
2023-01-31T09:28:43.448Z,101381.03
2023-01-31T09:31:13.058Z,101385.72
2023-01-31T09:33:41.355Z,101381.16
2023-01-31T09:36:10.613Z,101392.34
2023-01-31T09:38:38.765Z,101384.69
2023-01-31T09:41:07.734Z,101390.81
2023-01-31T09:43:39.017Z,101388.34
2023-01-31T09:46:14.037Z,101392.63
2023-01-31T09:48:45.437Z,101406.09
2023-01-31T09:51:14.305Z,101408.91
2023-01-31T09:53:44.038Z,101410.00
2023-01-31T09:56:21.119Z,101399.84
2023-01-31T09:58:55.697Z,101400.59
2023-01-31T10:01:27.500Z,101396.69
2023-01-31T10:04:02.666Z,101402.78
2023-01-31T10:06:34.361Z,101397.16
2023-01-31T10:09:05.383Z,101403.28
2023-01-31T10:11:37.708Z,101392.91
2023-01-31T10:14:22.431Z,101401.81
2023-01-31T10:16:57.584Z,101394.00
2023-01-31T10:19:29.675Z,101397.06
2023-01-31T10:22:00.760Z,101404.50
2023-01-31T10:24:31.659Z,101400.97
2023-01-31T10:27:04.852Z,101402.31
2023-01-31T10:29:36.414Z,101407.69
2023-01-31T10:32:08.812Z,101414.28
2023-01-31T10:34:40.377Z,101421.06
2023-01-31T10:37:11.514Z,101432.66
2023-01-31T10:39:44.028Z,101432.66
2023-01-31T10:42:21.828Z,101453.00
2023-01-31T10:44:53.959Z,101441.22
2023-01-31T10:47:26.020Z,101451.56
2023-01-31T10:49:54.395Z,101446.19
2023-01-31T10:52:34.522Z,101451.19
2023-01-31T10:55:10.937Z,101438.09
2023-01-31T10:57:39.435Z,101439.34
2023-01-31T11:00:08.632Z,101427.63
2023-01-31T11:02:38.387Z,101430.56
2023-01-31T11:05:07.000Z,101424.63
2023-01-31T11:07:35.700Z,101426.97
2023-01-31T11:10:21.607Z,101427.31
2023-01-31T11:12:54.249Z,101414.56
2023-01-31T11:15:24.672Z,101416.47
2023-01-31T11:17:54.385Z,101421.75
2023-01-31T11:20:25.268Z,101407.63
2023-01-31T11:22:53.624Z,101407.09
2023-01-31T11:25:23.038Z,101394.88
2023-01-31T11:27:53.738Z,101377.53
2023-01-31T11:30:23.848Z,101385.47
2023-01-31T11:32:52.004Z,101377.13
2023-01-31T11:35:26.043Z,101393.63
2023-01-31T11:37:55.588Z,101386.63
2023-01-31T11:40:27.866Z,101394.50
2023-01-31T11:42:56.986Z,101391.41
2023-01-31T11:45:27.674Z,101383.84
2023-01-31T11:47:56.967Z,101401.72
2023-01-31T11:50:28.433Z,101388.19
2023-01-31T11:52:57.916Z,101387.50
2023-01-31T11:55:26.312Z,101381.38
2023-01-31T11:57:59.101Z,101397.25
2023-01-31T12:00:29.187Z,101394.56
2023-01-31T12:03:02.391Z,101396.91
2023-01-31T12:05:36.019Z,101407.56
2023-01-31T12:08:04.218Z,101411.91
2023-01-31T12:10:36.921Z,101399.00
2023-01-31T12:13:18.970Z,101395.59
2023-01-31T12:15:55.570Z,101409.59
2023-01-31T12:18:41.225Z,101394.69
2023-01-31T12:21:14.852Z,101403.34
2023-01-31T12:23:52.071Z,101399.13
2023-01-31T12:26:26.451Z,101397.06
2023-01-31T12:29:02.981Z,101409.94
2023-01-31T12:31:40.224Z,101386.13
2023-01-31T12:34:16.097Z,101396.31
2023-01-31T12:36:54.808Z,101385.50
2023-01-31T12:39:39.345Z,101383.72
2023-01-31T12:42:17.170Z,101383.00
2023-01-31T12:44:46.713Z,101374.00
2023-01-31T12:47:34.131Z,101376.41
2023-01-31T12:50:08.172Z,101372.03
2023-01-31T12:52:45.405Z,101369.56
2023-01-31T12:55:22.452Z,101368.81
2023-01-31T12:57:53.128Z,101376.16
2023-01-31T13:00:28.870Z,101375.34
2023-01-31T13:03:10.032Z,101388.94
2023-01-31T13:05:44.165Z,101392.94
2023-01-31T13:08:18.161Z,101386.69
2023-01-31T13:10:47.782Z,101386.50
2023-01-31T13:13:19.257Z,101376.66
2023-01-31T13:15:50.684Z,101377.78
2023-01-31T13:18:20.290Z,101381.13
2023-01-31T13:20:50.285Z,101381.28
2023-01-31T13:23:21.384Z,101372.34
2023-01-31T13:25:52.997Z,101373.25
2023-01-31T13:28:24.400Z,101369.81
2023-01-31T13:30:54.740Z,101373.81
2023-01-31T13:33:27.340Z,101380.09
2023-01-31T13:35:58.979Z,101363.44
2023-01-31T13:38:32.075Z,101366.41
2023-01-31T13:41:01.112Z,101359.47
2023-01-31T13:43:29.208Z,101352.22
2023-01-31T13:45:59.211Z,101332.63
2023-01-31T13:48:30.509Z,101327.78
2023-01-31T13:51:01.506Z,101328.44
2023-01-31T13:53:34.047Z,101329.44
2023-01-31T13:56:03.863Z,101324.84
2023-01-31T13:58:34.391Z,101320.59
2023-01-31T14:01:05.410Z,101317.03
2023-01-31T14:03:53.595Z,101319.72
2023-01-31T14:06:21.776Z,101319.78
2023-01-31T14:09:02.279Z,101327.34
2023-01-31T14:11:35.578Z,101319.66
2023-01-31T14:14:22.490Z,101329.31
2023-01-31T14:16:52.917Z,101317.38
2023-01-31T14:19:55.166Z,101321.69
2023-01-31T14:22:24.324Z,101324.00
2023-01-31T14:25:01.591Z,101315.31
2023-01-31T14:27:32.985Z,101316.28
2023-01-31T14:30:09.486Z,101315.84
2023-01-31T14:32:39.860Z,101311.88
2023-01-31T14:35:22.677Z,101310.44
2023-01-31T14:37:56.373Z,101315.66
2023-01-31T14:40:28.908Z,101318.91
2023-01-31T14:43:11.582Z,101319.88
2023-01-31T14:45:48.556Z,101307.38
2023-01-31T14:48:23.694Z,101324.06
2023-01-31T14:51:02.837Z,101311.53
2023-01-31T14:53:36.850Z,101313.81
2023-01-31T14:56:14.874Z,101310.09
2023-01-31T14:58:46.042Z,101304.25
2023-01-31T15:01:15.834Z,101303.88
2023-01-31T15:03:50.603Z,101306.09
2023-01-31T15:06:24.138Z,101308.66
2023-01-31T15:09:12.686Z,101314.94
2023-01-31T15:11:43.006Z,101319.06
2023-01-31T15:14:34.262Z,101321.50
2023-01-31T15:17:06.206Z,101326.97
2023-01-31T15:19:41.755Z,101328.41
2023-01-31T15:22:11.329Z,101318.13
2023-01-31T15:24:40.952Z,101316.66
2023-01-31T15:27:13.208Z,101315.81
2023-01-31T15:29:52.166Z,101313.34
2023-01-31T15:32:24.169Z,101313.19
2023-01-31T15:34:55.991Z,101315.25
2023-01-31T15:37:25.536Z,101315.38
2023-01-31T15:39:54.903Z,101310.09
2023-01-31T15:42:25.856Z,101314.22
2023-01-31T15:45:08.861Z,101320.09
2023-01-31T15:47:38.530Z,101328.38
2023-01-31T15:50:14.556Z,101322.84
2023-01-31T15:52:42.734Z,101319.91
2023-01-31T15:55:13.509Z,101328.09
2023-01-31T15:57:43.719Z,101335.22
2023-01-31T16:00:19.858Z,101331.84
2023-01-31T16:02:49.544Z,101332.38
2023-01-31T16:05:21.654Z,101338.06
2023-01-31T16:07:50.548Z,101343.19
2023-01-31T16:10:19.132Z,101344.19
2023-01-31T16:12:49.159Z,101347.41
2023-01-31T16:15:20.531Z,101357.47
2023-01-31T16:17:51.051Z,101347.72
2023-01-31T16:20:39.227Z,101349.16
2023-01-31T16:23:07.878Z,101342.09
2023-01-31T16:25:37.416Z,101346.50
2023-01-31T16:28:06.649Z,101335.13
2023-01-31T16:30:35.372Z,101339.16
2023-01-31T16:33:05.237Z,101345.31
2023-01-31T16:35:33.420Z,101342.84
2023-01-31T16:38:03.737Z,101347.03
2023-01-31T16:40:32.960Z,101357.00
2023-01-31T16:43:10.225Z,101357.25
2023-01-31T16:45:38.400Z,101362.41
2023-01-31T16:48:23.506Z,101357.03
2023-01-31T16:50:53.198Z,101364.25
2023-01-31T16:53:28.737Z,101365.34
2023-01-31T16:56:15.485Z,101363.63
2023-01-31T16:58:45.375Z,101376.84
2023-01-31T17:01:14.343Z,101378.94
2023-01-31T17:03:43.965Z,101373.69
2023-01-31T17:06:19.211Z,101376.75
2023-01-31T17:08:47.644Z,101377.09
2023-01-31T17:11:34.159Z,101378.31
2023-01-31T17:14:09.221Z,101371.97
2023-01-31T17:16:37.458Z,101352.91
2023-01-31T17:19:07.067Z,101349.50
2023-01-31T17:21:39.014Z,101350.34
2023-01-31T17:24:07.460Z,101345.59
2023-01-31T17:26:35.770Z,101345.22
2023-01-31T17:29:03.897Z,101346.31
2023-01-31T17:31:32.054Z,101350.84
2023-01-31T17:34:00.216Z,101356.84
2023-01-31T17:36:29.712Z,101354.88
2023-01-31T17:38:58.269Z,101355.84
2023-01-31T17:41:27.847Z,101360.13
2023-01-31T17:43:55.922Z,101350.00
2023-01-31T17:46:24.439Z,101352.94
2023-01-31T17:48:52.526Z,101359.03
2023-01-31T17:51:20.660Z,101363.44
2023-01-31T17:53:50.659Z,101368.69
2023-01-31T17:56:19.799Z,101366.13
2023-01-31T17:58:49.474Z,101360.88
2023-01-31T18:01:17.754Z,101365.47
2023-01-31T18:03:46.216Z,101362.06
2023-01-31T18:06:14.353Z,101357.56
2023-01-31T18:08:42.519Z,101355.34
2023-01-31T18:11:12.910Z,101357.06
2023-01-31T18:13:41.103Z,101347.75
2023-01-31T18:16:10.933Z,101346.28
2023-01-31T18:18:40.628Z,101337.72
2023-01-31T18:21:09.841Z,101333.06
2023-01-31T18:23:38.044Z,101332.81
2023-01-31T18:26:06.490Z,101338.84
2023-01-31T18:28:36.184Z,101340.28
2023-01-31T18:31:05.287Z,101341.00
2023-01-31T18:33:33.888Z,101346.25
2023-01-31T18:36:02.593Z,101346.38
2023-01-31T18:38:31.097Z,101349.53
2023-01-31T18:41:00.360Z,101355.31
2023-01-31T18:43:31.049Z,101356.19
2023-01-31T18:46:00.828Z,101368.38
2023-01-31T18:48:29.400Z,101370.94
2023-01-31T18:51:00.291Z,101366.22
2023-01-31T18:53:28.529Z,101360.59
2023-01-31T18:56:00.059Z,101361.56
2023-01-31T18:58:31.209Z,101363.28
2023-01-31T19:01:07.974Z,101358.69
2023-01-31T19:03:36.637Z,101353.31
2023-01-31T19:06:05.737Z,101367.44
2023-01-31T19:08:34.004Z,101367.69
2023-01-31T19:11:06.021Z,101368.09
2023-01-31T19:13:34.209Z,101371.09
2023-01-31T19:16:03.538Z,101369.91
2023-01-31T19:18:33.340Z,101375.66
2023-01-31T19:21:01.421Z,101371.63
2023-01-31T19:23:29.662Z,101368.94
2023-01-31T19:25:57.869Z,101370.78
2023-01-31T19:28:27.002Z,101377.72
2023-01-31T19:30:55.079Z,101383.72
2023-01-31T19:33:23.453Z,101391.88
2023-01-31T19:35:53.220Z,101384.44
2023-01-31T19:38:21.494Z,101385.63
2023-01-31T19:40:51.828Z,101390.16
2023-01-31T19:43:19.972Z,101379.66
2023-01-31T19:45:49.251Z,101376.03
2023-01-31T19:48:17.958Z,101376.88
2023-01-31T19:50:47.014Z,101375.16
2023-01-31T19:53:16.516Z,101372.56
2023-01-31T19:55:44.745Z,101375.16
2023-01-31T19:58:12.858Z,101378.81
2023-01-31T20:00:40.887Z,101375.63
2023-01-31T20:03:09.045Z,101387.19
2023-01-31T20:05:37.557Z,101381.59
2023-01-31T20:08:05.847Z,101383.56
2023-01-31T20:10:35.736Z,101383.91
2023-01-31T20:13:03.723Z,101376.44
2023-01-31T20:15:32.058Z,101388.16
2023-01-31T20:18:00.193Z,101397.16
2023-01-31T20:20:28.260Z,101389.00
2023-01-31T20:22:56.449Z,101388.16
2023-01-31T20:25:24.698Z,101389.72
2023-01-31T20:27:54.304Z,101375.47
2023-01-31T20:30:23.622Z,101359.13
2023-01-31T20:32:51.885Z,101370.09
2023-01-31T20:35:20.157Z,101360.84
2023-01-31T20:37:48.635Z,101361.94
2023-01-31T20:40:17.345Z,101364.44
2023-01-31T20:42:45.573Z,101372.50
2023-01-31T20:45:15.037Z,101377.38
2023-01-31T20:47:43.167Z,101377.59
2023-01-31T20:50:11.688Z,101377.56
2023-01-31T20:52:40.095Z,101373.88
2023-01-31T20:55:08.996Z,101363.09
2023-01-31T20:57:37.329Z,101366.78
2023-01-31T21:00:05.942Z,101364.75
2023-01-31T21:02:35.582Z,101358.91
2023-01-31T21:05:03.883Z,101368.97
2023-01-31T21:07:31.994Z,101362.78
2023-01-31T21:10:00.168Z,101366.75
2023-01-31T21:12:28.403Z,101376.34
2023-01-31T21:14:56.420Z,101379.25
2023-01-31T21:17:37.782Z,101366.78
2023-01-31T21:20:11.026Z,101374.94
2023-01-31T21:22:39.210Z,101367.34
2023-01-31T21:25:07.557Z,101372.81
2023-01-31T21:27:35.719Z,101374.75
2023-01-31T21:30:03.897Z,101372.06
2023-01-31T21:32:31.991Z,101378.16
2023-01-31T21:35:00.606Z,101380.97
2023-01-31T21:37:30.684Z,101374.31
2023-01-31T21:39:59.030Z,101377.84
2023-01-31T21:42:27.367Z,101377.84
2023-01-31T21:44:55.487Z,101370.66
2023-01-31T21:47:23.743Z,101372.59
2023-01-31T21:49:51.808Z,101368.00
2023-01-31T21:52:20.094Z,101378.72
2023-01-31T21:54:49.802Z,101375.25
2023-01-31T21:57:18.834Z,101387.41
2023-01-31T21:59:49.803Z,101389.34
2023-01-31T22:02:18.904Z,101375.22
2023-01-31T22:04:47.917Z,101376.28
2023-01-31T22:07:16.313Z,101376.41
2023-01-31T22:09:44.753Z,101381.94
2023-01-31T22:12:16.186Z,101385.94
2023-01-31T22:14:44.397Z,101380.59
2023-01-31T22:17:13.039Z,101388.94
2023-01-31T22:19:42.003Z,101391.84
2023-01-31T22:22:10.300Z,101391.31
2023-01-31T22:24:38.695Z,101400.31
2023-01-31T22:27:07.728Z,101391.63
2023-01-31T22:29:38.932Z,101391.63
2023-01-31T22:32:09.847Z,101395.19
2023-01-31T22:34:40.056Z,101395.59
2023-01-31T22:37:12.620Z,101396.88
2023-01-31T22:39:41.131Z,101401.16
2023-01-31T22:42:09.227Z,101396.03
2023-01-31T22:44:40.784Z,101399.44
2023-01-31T22:47:10.888Z,101392.19
2023-01-31T22:49:39.981Z,101391.00
2023-01-31T22:52:08.621Z,101389.81
2023-01-31T22:54:36.836Z,101400.53
2023-01-31T22:57:05.515Z,101384.25
2023-01-31T22:59:35.697Z,101381.56
2023-01-31T23:02:06.368Z,101381.78
2023-01-31T23:04:36.636Z,101378.34
2023-01-31T23:07:04.780Z,101390.44
2023-01-31T23:09:34.397Z,101381.69
2023-01-31T23:12:02.420Z,101372.66
2023-01-31T23:14:30.739Z,101370.53
2023-01-31T23:17:16.435Z,101366.03
2023-01-31T23:19:46.049Z,101362.28
2023-01-31T23:22:15.316Z,101362.03
2023-01-31T23:24:43.640Z,101360.13
2023-01-31T23:27:11.794Z,101355.28
2023-01-31T23:29:39.976Z,101361.91
2023-01-31T23:32:08.188Z,101365.13
2023-01-31T23:34:36.333Z,101370.91
2023-01-31T23:37:06.460Z,101349.16
2023-01-31T23:39:34.731Z,101347.97
2023-01-31T23:42:02.881Z,101350.94
2023-01-31T23:44:31.298Z,101361.31
2023-01-31T23:46:59.312Z,101359.25
2023-01-31T23:49:27.508Z,101372.34
2023-01-31T23:51:55.993Z,101365.88
2023-01-31T23:54:25.471Z,101362.66
2023-01-31T23:56:53.841Z,101361.56
2023-01-31T23:59:21.945Z,101367.56
